createdAt,value
2019-05-06T00:00:34.217Z,80.74
2019-05-06T00:03:01.369Z,81.27
2019-05-06T00:05:28.000Z,81.27
2019-05-06T00:07:54.952Z,82.23
2019-05-06T00:10:25.758Z,82.21
2019-05-06T00:12:53.716Z,82.01
2019-05-06T00:15:20.477Z,82.45
2019-05-06T00:17:47.108Z,82.04
2019-05-06T00:20:14.681Z,81.16
2019-05-06T00:22:43.497Z,80.24
2019-05-06T00:25:14.026Z,80.89
2019-05-06T00:28:01.492Z,80.53
2019-05-06T00:30:29.214Z,79.40
2019-05-06T00:32:55.858Z,79.46
2019-05-06T00:35:23.449Z,79.07
2019-05-06T00:37:50.237Z,78.07
2019-05-06T00:40:19.369Z,78.17
2019-05-06T00:42:47.865Z,77.91
2019-05-06T00:45:14.514Z,78.38
2019-05-06T00:47:41.152Z,78.25
2019-05-06T00:50:08.403Z,78.12
2019-05-06T00:52:35.935Z,78.23
2019-05-06T00:55:04.124Z,78.23
2019-05-06T00:57:43.868Z,78.62
2019-05-06T01:00:13.707Z,78.29
2019-05-06T01:02:40.333Z,77.86
2019-05-06T01:05:07.220Z,77.26
2019-05-06T01:07:34.460Z,78.22
2019-05-06T01:10:01.267Z,77.78
2019-05-06T01:12:27.937Z,77.12
2019-05-06T01:14:56.395Z,77.09
2019-05-06T01:17:24.339Z,77.04
2019-05-06T01:19:51.096Z,76.50
2019-05-06T01:22:17.757Z,76.83
2019-05-06T01:24:44.410Z,76.82
2019-05-06T01:27:11.078Z,76.62
2019-05-06T01:29:37.778Z,76.47
2019-05-06T01:32:04.355Z,75.48
2019-05-06T01:34:31.031Z,76.89
2019-05-06T01:36:57.659Z,76.35
2019-05-06T01:39:27.310Z,76.37
2019-05-06T01:42:10.996Z,77.21
2019-05-06T01:44:37.616Z,77.13
2019-05-06T01:47:04.249Z,77.32
2019-05-06T01:49:34.007Z,77.43
2019-05-06T01:52:00.850Z,77.33
2019-05-06T01:54:27.469Z,77.46
2019-05-06T01:56:54.200Z,77.91
2019-05-06T01:59:20.808Z,77.89
2019-05-06T02:01:56.905Z,76.98
2019-05-06T02:04:16.016Z,77.09
2019-05-06T02:06:43.736Z,77.76
2019-05-06T02:09:13.768Z,77.84
2019-05-06T02:11:40.512Z,77.58
2019-05-06T02:14:07.107Z,77.52
2019-05-06T02:16:34.441Z,77.43
2019-05-06T02:19:01.388Z,77.37
2019-05-06T02:21:29.835Z,76.95
2019-05-06T02:24:17.785Z,77.24
2019-05-06T02:26:44.387Z,76.79
2019-05-06T02:29:12.860Z,77.24
2019-05-06T02:31:50.256Z,77.65
2019-05-06T02:34:37.058Z,77.57
2019-05-06T02:37:08.259Z,77.41
2019-05-06T02:39:34.858Z,77.96
2019-05-06T02:42:04.057Z,77.68
2019-05-06T02:44:33.379Z,76.99
2019-05-06T02:47:02.874Z,77.49
2019-05-06T02:49:33.892Z,76.87
2019-05-06T02:52:03.152Z,77.34
2019-05-06T02:54:29.011Z,77.00
2019-05-06T02:56:55.651Z,77.45
2019-05-06T02:59:24.216Z,77.15
2019-05-06T03:01:53.547Z,77.00
2019-05-06T03:04:19.542Z,77.38
2019-05-06T03:06:46.194Z,77.50
2019-05-06T03:09:13.730Z,78.51
2019-05-06T03:11:43.875Z,79.23
2019-05-06T03:14:13.890Z,78.56
2019-05-06T03:16:40.051Z,78.67
2019-05-06T03:19:06.717Z,78.17
2019-05-06T03:21:37.044Z,78.25
2019-05-06T03:24:17.695Z,78.13
2019-05-06T03:26:44.604Z,78.28
2019-05-06T03:29:13.632Z,78.49
2019-05-06T03:31:45.732Z,78.33
2019-05-06T03:34:35.363Z,78.70
2019-05-06T03:36:41.035Z,78.62
2019-05-06T03:39:07.562Z,78.44
2019-05-06T03:41:34.149Z,78.17
2019-05-06T03:44:03.244Z,78.82
2019-05-06T03:46:47.749Z,78.70
2019-05-06T03:49:14.649Z,78.78
2019-05-06T03:51:42.937Z,76.94
2019-05-06T03:54:12.829Z,78.02
2019-05-06T03:56:43.373Z,78.55
2019-05-06T03:59:10.157Z,78.76
2019-05-06T04:01:38.751Z,78.28
2019-05-06T04:04:05.435Z,78.38
2019-05-06T04:06:33.206Z,78.09
2019-05-06T04:09:03.662Z,78.77
2019-05-06T04:11:35.878Z,78.88
2019-05-06T04:14:02.837Z,79.05
2019-05-06T04:16:33.642Z,79.92
2019-05-06T04:19:04.353Z,80.26
2019-05-06T04:21:34.240Z,80.47
2019-05-06T04:24:08.370Z,79.03
2019-05-06T04:26:38.619Z,78.94
2019-05-06T04:29:05.410Z,78.46
2019-05-06T04:31:33.596Z,78.20
2019-05-06T04:34:09.764Z,77.98
2019-05-06T04:36:29.308Z,77.97
2019-05-06T04:38:55.920Z,77.93
2019-05-06T04:41:26.183Z,78.35
2019-05-06T04:43:53.339Z,78.28
2019-05-06T04:46:19.707Z,78.52
2019-05-06T04:48:46.392Z,78.50
2019-05-06T04:51:13.690Z,77.71
2019-05-06T04:53:44.091Z,76.90
2019-05-06T04:56:09.961Z,78.05
2019-05-06T04:58:38.396Z,77.83
2019-05-06T05:01:06.828Z,78.49
2019-05-06T05:03:33.782Z,78.29
2019-05-06T05:06:02.975Z,78.08
2019-05-06T05:08:37.495Z,78.34
2019-05-06T05:11:25.850Z,78.01
2019-05-06T05:14:02.744Z,77.39
2019-05-06T05:16:33.013Z,78.15
2019-05-06T05:19:04.687Z,78.00
2019-05-06T05:21:32.245Z,78.75
2019-05-06T05:23:59.109Z,77.14
2019-05-06T05:26:26.738Z,77.25
2019-05-06T05:28:53.366Z,76.55
2019-05-06T05:31:19.974Z,77.45
2019-05-06T05:33:47.730Z,76.88
2019-05-06T05:36:14.363Z,77.53
2019-05-06T05:38:42.861Z,78.13
2019-05-06T05:41:12.092Z,78.06
2019-05-06T05:43:43.474Z,76.04
2019-05-06T05:46:12.620Z,76.21
2019-05-06T05:48:57.880Z,78.09
2019-05-06T05:51:24.644Z,77.61
2019-05-06T05:53:52.333Z,76.16
2019-05-06T05:56:19.221Z,76.57
2019-05-06T05:58:46.401Z,74.66
2019-05-06T06:01:13.269Z,74.52
2019-05-06T06:03:42.047Z,73.85
2019-05-06T06:06:12.462Z,74.34
2019-05-06T06:08:38.813Z,73.58
2019-05-06T06:11:07.274Z,75.99
2019-05-06T06:13:34.234Z,75.53
2019-05-06T06:16:05.842Z,75.29
2019-05-06T06:18:38.556Z,72.36
2019-05-06T06:21:28.033Z,71.50
2019-05-06T06:23:53.902Z,70.21
2019-05-06T06:41:42.384Z,68.04
2019-05-06T06:44:13.311Z,63.45
2019-05-06T06:46:42.911Z,66.08
2019-05-06T06:49:12.715Z,65.24
2019-05-06T06:51:42.317Z,62.77
2019-05-06T06:54:08.646Z,65.03
2019-05-06T06:57:05.063Z,64.21
2019-05-06T06:59:26.557Z,62.74
2019-05-06T07:02:04.156Z,62.41
2019-05-06T07:04:43.116Z,64.72
2019-05-06T07:07:12.945Z,62.07
2019-05-06T07:09:39.152Z,61.78
2019-05-06T07:12:07.145Z,64.21
2019-05-06T07:14:36.240Z,64.93
2019-05-06T07:17:03.108Z,64.17
2019-05-06T07:19:35.788Z,64.72
2019-05-06T07:22:02.952Z,63.66
2019-05-06T07:24:32.451Z,62.45
2019-05-06T07:27:03.749Z,63.66
2019-05-06T07:29:48.414Z,63.87
2019-05-06T07:32:09.338Z,66.45
2019-05-06T07:34:35.942Z,66.58
2019-05-06T07:37:03.418Z,64.68
2019-05-06T07:39:30.450Z,66.92
2019-05-06T07:41:59.530Z,66.00
2019-05-06T07:44:45.305Z,65.95
2019-05-06T07:47:16.439Z,65.23
2019-05-06T07:49:43.443Z,65.61
2019-05-06T07:52:12.345Z,65.61
2019-05-06T07:54:42.428Z,64.99
2019-05-06T07:57:09.170Z,66.18
2019-05-06T07:59:35.800Z,66.50
2019-05-06T08:02:04.220Z,63.63
2019-05-06T08:04:32.452Z,65.39
2019-05-06T08:06:59.319Z,62.77
2019-05-06T08:09:25.900Z,59.98
2019-05-06T08:11:53.091Z,59.72
2019-05-06T08:14:22.437Z,62.46
2019-05-06T08:16:50.330Z,62.92
2019-05-06T08:19:17.232Z,61.42
2019-05-06T08:21:45.824Z,60.45
2019-05-06T08:24:12.455Z,57.89
2019-05-06T08:26:39.060Z,56.76
2019-05-06T08:29:05.986Z,56.36
2019-05-06T08:31:33.504Z,58.76
2019-05-06T08:34:02.698Z,59.72
2019-05-06T08:36:42.590Z,55.55
2019-05-06T08:39:13.037Z,53.97
2019-05-06T08:41:39.768Z,54.87
2019-05-06T08:44:07.879Z,56.58
2019-05-06T08:46:34.500Z,50.34
2019-05-06T08:49:03.166Z,52.00
2019-05-06T08:51:43.923Z,51.46
2019-05-06T08:54:15.071Z,48.73
2019-05-06T08:56:42.669Z,48.48
2019-05-06T08:59:09.519Z,50.29
2019-05-06T09:01:37.916Z,49.07
2019-05-06T09:04:09.423Z,48.47
2019-05-06T09:06:34.336Z,48.59
2019-05-06T09:09:02.460Z,48.25
2019-05-06T09:11:33.311Z,49.31
2019-05-06T09:13:59.899Z,48.79
2019-05-06T09:16:28.405Z,50.19
2019-05-06T09:18:54.986Z,49.01
2019-05-06T09:21:22.981Z,50.51
2019-05-06T09:23:49.940Z,50.71
2019-05-06T09:26:22.446Z,51.66
2019-05-06T09:28:52.968Z,49.33
2019-05-06T09:31:33.844Z,48.86
2019-05-06T09:34:02.946Z,50.00
2019-05-06T09:36:43.576Z,48.64
2019-05-06T09:39:01.779Z,47.70
2019-05-06T09:41:33.229Z,47.80
2019-05-06T09:44:03.065Z,46.05
2019-05-06T09:46:32.083Z,47.27
2019-05-06T09:49:03.317Z,47.50
2019-05-06T09:51:32.378Z,45.17
2019-05-06T09:54:04.105Z,46.87
2019-05-06T09:56:33.476Z,46.98
2019-05-06T09:59:03.404Z,47.00
2019-05-06T10:01:34.200Z,45.53
2019-05-06T10:04:04.131Z,44.63
2019-05-06T10:06:32.887Z,43.54
2019-05-06T10:09:04.257Z,46.03
2019-05-06T10:11:32.903Z,43.25
2019-05-06T10:13:59.661Z,39.75
2019-05-06T10:16:27.703Z,40.73
2019-05-06T10:18:54.364Z,40.31
2019-05-06T10:21:22.967Z,42.25
2019-05-06T10:23:52.785Z,43.97
2019-05-06T10:26:23.457Z,41.49
2019-05-06T10:29:02.827Z,42.78
2019-05-06T10:31:32.717Z,40.93
2019-05-06T10:34:13.914Z,44.09
2019-05-06T10:36:53.329Z,41.55
2019-05-06T10:39:23.585Z,40.50
2019-05-06T10:41:54.324Z,41.11
2019-05-06T10:44:42.612Z,40.89
2019-05-06T10:47:12.717Z,41.99
2019-05-06T10:49:42.072Z,40.66
2019-05-06T10:52:13.417Z,39.17
2019-05-06T10:54:42.112Z,41.06
2019-05-06T10:57:15.544Z,43.02
2019-05-06T10:59:44.860Z,38.02
2019-05-06T11:02:34.766Z,37.78
2019-05-06T11:05:05.487Z,37.11
2019-05-06T11:07:35.248Z,38.69
2019-05-06T11:10:02.897Z,38.24
2019-05-06T11:12:32.574Z,39.40
2019-05-06T11:14:59.467Z,39.45
2019-05-06T11:17:26.592Z,37.97
2019-05-06T11:19:55.326Z,41.35
2019-05-06T11:22:24.776Z,37.87
2019-05-06T11:24:52.854Z,37.27
2019-05-06T11:27:28.749Z,41.00
2019-05-06T11:29:52.919Z,38.28
2019-05-06T11:32:23.778Z,40.37
2019-05-06T11:34:55.170Z,38.12
2019-05-06T11:37:26.659Z,35.65
2019-05-06T11:39:54.143Z,32.61
2019-05-06T11:42:31.034Z,32.63
2019-05-06T11:44:53.206Z,32.71
2019-05-06T11:47:23.311Z,34.47
2019-05-06T11:49:56.118Z,36.92
2019-05-06T11:52:26.081Z,36.42
2019-05-06T11:54:55.770Z,34.78
2019-05-06T11:57:23.244Z,36.41
2019-05-06T11:59:55.995Z,33.52
2019-05-06T12:02:26.394Z,34.17
2019-05-06T12:04:53.500Z,31.80
2019-05-06T12:07:24.181Z,35.97
2019-05-06T12:09:48.927Z,33.12
2019-05-06T12:12:17.694Z,33.03
2019-05-06T12:14:47.219Z,35.91
2019-05-06T12:17:14.260Z,32.97
2019-05-06T12:19:43.358Z,32.33
2019-05-06T12:22:14.121Z,34.51
2019-05-06T12:24:43.211Z,36.14
2019-05-06T12:27:16.716Z,31.85
2019-05-06T12:29:46.655Z,33.68
2019-05-06T12:32:27.225Z,33.65
2019-05-06T12:34:54.349Z,34.37
2019-05-06T12:37:22.767Z,35.29
2019-05-06T12:39:53.369Z,37.63
2019-05-06T12:42:26.140Z,38.16
2019-05-06T12:44:56.420Z,38.32
2019-05-06T12:47:26.741Z,37.78
2019-05-06T12:49:54.657Z,36.54
2019-05-06T12:52:23.439Z,36.65
2019-05-06T12:54:54.215Z,32.68
2019-05-06T12:57:23.436Z,33.78
2019-05-06T12:59:50.373Z,31.29
2019-05-06T13:02:17.577Z,33.52
2019-05-06T13:04:56.036Z,32.97
2019-05-06T13:07:16.372Z,32.48
2019-05-06T13:09:45.492Z,33.52
2019-05-06T13:12:14.657Z,32.22
2019-05-06T13:14:43.111Z,34.47
2019-05-06T13:17:12.984Z,33.62
2019-05-06T13:19:43.280Z,33.45
2019-05-06T13:22:15.105Z,32.89
2019-05-06T13:24:41.927Z,33.27
2019-05-06T13:27:13.819Z,33.94
2019-05-06T13:29:43.028Z,33.69
2019-05-06T13:32:14.624Z,37.41
2019-05-06T13:34:42.429Z,39.06
2019-05-06T13:37:09.630Z,41.42
2019-05-06T13:39:37.406Z,42.92
2019-05-06T13:42:04.413Z,41.38
2019-05-06T13:44:32.352Z,43.12
2019-05-06T13:47:13.823Z,41.87
2019-05-06T13:49:52.211Z,43.26
2019-05-06T13:52:19.907Z,43.94
2019-05-06T13:54:46.508Z,43.75
2019-05-06T13:57:13.180Z,45.04
2019-05-06T13:59:40.231Z,42.22
2019-05-06T14:02:21.826Z,43.70
2019-05-06T14:04:49.002Z,46.17
2019-05-06T14:07:15.610Z,48.47
2019-05-06T14:09:43.692Z,49.85
2019-05-06T14:12:10.766Z,51.04
2019-05-06T14:14:37.467Z,51.87
2019-05-06T14:17:04.057Z,51.97
2019-05-06T14:19:33.203Z,51.96
2019-05-06T14:22:03.016Z,52.26
2019-05-06T14:24:29.936Z,51.87
2019-05-06T14:26:59.234Z,52.58
2019-05-06T14:29:27.730Z,52.49
2019-05-06T14:31:57.624Z,53.25
2019-05-06T14:34:24.248Z,53.13
2019-05-06T14:36:53.364Z,53.55
2019-05-06T14:39:24.100Z,52.61
2019-05-06T14:41:55.059Z,52.83
2019-05-06T14:44:23.410Z,53.35
2019-05-06T14:47:02.280Z,54.68
2019-05-06T14:49:28.975Z,54.40
2019-05-06T14:51:55.940Z,52.72
2019-05-06T14:54:24.654Z,54.07
2019-05-06T14:56:53.515Z,52.98
2019-05-06T14:59:23.446Z,52.74
2019-05-06T15:01:53.805Z,53.60
2019-05-06T15:04:22.920Z,53.82
2019-05-06T15:06:49.262Z,53.23
2019-05-06T15:09:15.854Z,53.61
2019-05-06T15:11:43.553Z,53.39
2019-05-06T15:14:13.057Z,53.82
2019-05-06T15:16:42.094Z,54.11
2019-05-06T15:19:08.153Z,53.37
2019-05-06T15:21:38.588Z,54.13
2019-05-06T15:24:03.333Z,54.79
2019-05-06T15:26:29.968Z,53.79
2019-05-06T15:28:57.632Z,53.80
2019-05-06T15:31:32.162Z,53.80
2019-05-06T15:34:06.370Z,54.43
2019-05-06T15:36:38.501Z,55.50
2019-05-06T15:39:05.261Z,55.10
2019-05-06T15:41:32.364Z,55.44
2019-05-06T15:44:02.820Z,54.45
2019-05-06T15:46:28.917Z,54.55
2019-05-06T15:48:55.505Z,55.31
2019-05-06T15:51:26.379Z,55.92
2019-05-06T15:53:54.837Z,55.66
2019-05-06T15:56:23.092Z,55.45
2019-05-06T15:58:51.631Z,56.11
2019-05-06T16:01:23.490Z,56.37
2019-05-06T16:03:53.156Z,56.18
2019-05-06T16:06:22.933Z,56.45
2019-05-06T16:08:52.487Z,56.52
2019-05-06T16:11:22.287Z,56.93
2019-05-06T16:13:53.429Z,58.10
2019-05-06T16:16:24.546Z,58.10
2019-05-06T16:18:51.178Z,57.79
2019-05-06T16:21:18.886Z,57.98
2019-05-06T16:23:48.415Z,58.90
2019-05-06T16:26:15.101Z,58.67
2019-05-06T16:28:44.936Z,58.56
2019-05-06T16:31:13.015Z,59.01
2019-05-06T16:33:39.833Z,57.89
2019-05-06T16:36:06.466Z,57.85
2019-05-06T16:38:33.087Z,58.72
2019-05-06T16:41:10.365Z,58.15
2019-05-06T16:43:28.323Z,59.10
2019-05-06T16:45:56.741Z,59.36
2019-05-06T16:48:23.330Z,58.84
2019-05-06T16:50:52.392Z,59.72
2019-05-06T16:53:18.980Z,59.24
2019-05-06T16:56:02.078Z,57.97
2019-05-06T16:58:47.254Z,57.06
2019-05-06T17:01:15.200Z,57.59
2019-05-06T17:03:46.471Z,57.73
2019-05-06T17:06:15.334Z,58.12
2019-05-06T17:08:42.539Z,58.31
2019-05-06T17:11:26.169Z,58.35
2019-05-06T17:13:39.307Z,59.01
2019-05-06T17:16:06.302Z,58.11
2019-05-06T17:18:33.190Z,58.16
2019-05-06T17:21:00.068Z,58.35
2019-05-06T17:23:26.987Z,58.48
2019-05-06T17:25:53.590Z,59.33
2019-05-06T17:28:24.820Z,58.68
2019-05-06T17:31:09.550Z,58.85
2019-05-06T17:33:42.843Z,59.73
2019-05-06T17:36:12.665Z,60.17
2019-05-06T17:38:41.901Z,60.35
2019-05-06T17:41:08.629Z,60.94
2019-05-06T17:43:40.530Z,61.02
2019-05-06T17:46:07.726Z,60.76
2019-05-06T17:48:36.197Z,61.94
2019-05-06T17:51:07.600Z,61.33
2019-05-06T17:53:35.343Z,61.00
2019-05-06T17:56:02.116Z,60.72
2019-05-06T17:58:30.317Z,61.30
2019-05-06T18:00:57.451Z,61.89
2019-05-06T18:03:24.914Z,61.71
2019-05-06T18:05:52.598Z,61.96
2019-05-06T18:08:19.343Z,62.05
2019-05-06T18:10:45.998Z,62.15
2019-05-06T18:13:14.505Z,62.62
2019-05-06T18:15:43.072Z,62.67
2019-05-06T18:18:09.833Z,63.28
2019-05-06T18:20:36.432Z,62.90
2019-05-06T18:23:03.076Z,62.92
2019-05-06T18:25:29.686Z,63.44
2019-05-06T18:27:58.138Z,63.88
2019-05-06T18:30:33.058Z,64.13
2019-05-06T18:32:53.345Z,64.31
2019-05-06T18:35:20.452Z,64.61
2019-05-06T18:37:47.341Z,64.75
2019-05-06T18:40:14.028Z,65.13
2019-05-06T18:42:42.947Z,65.20
2019-05-06T18:45:12.229Z,65.20
2019-05-06T18:47:38.773Z,65.37
2019-05-06T18:50:05.721Z,65.38
2019-05-06T18:52:32.738Z,64.75
2019-05-06T18:54:59.475Z,65.29
2019-05-06T18:57:26.383Z,65.95
2019-05-06T18:59:54.911Z,66.06
2019-05-06T19:02:22.950Z,66.12
2019-05-06T19:04:52.319Z,66.42
2019-05-06T19:07:19.110Z,66.53
2019-05-06T19:09:52.468Z,67.12
2019-05-06T19:12:30.109Z,67.21
2019-05-06T19:14:48.203Z,67.19
2019-05-06T19:17:14.812Z,67.93
2019-05-06T19:19:42.617Z,68.71
2019-05-06T19:22:13.713Z,69.10
2019-05-06T19:24:45.543Z,69.47
2019-05-06T19:27:13.957Z,69.82
2019-05-06T19:29:48.614Z,69.57
2019-05-06T19:32:24.456Z,69.13
2019-05-06T19:34:54.778Z,68.88
2019-05-06T19:37:23.324Z,68.64
2019-05-06T19:39:52.325Z,68.24
2019-05-06T19:42:18.934Z,68.57
2019-05-06T19:44:47.318Z,68.48
2019-05-06T19:47:14.975Z,68.32
2019-05-06T19:49:42.400Z,68.12
2019-05-06T19:52:09.459Z,67.96
2019-05-06T19:54:36.123Z,67.67
2019-05-06T19:57:02.791Z,67.61
2019-05-06T19:59:29.415Z,67.30
2019-05-06T20:01:56.094Z,67.31
2019-05-06T20:04:23.233Z,67.35
2019-05-06T20:07:05.431Z,67.18
2019-05-06T20:09:52.097Z,67.22
2019-05-06T20:12:37.010Z,67.56
2019-05-06T20:15:24.789Z,68.02
2019-05-06T20:17:52.091Z,68.32
2019-05-06T20:20:18.890Z,68.23
2019-05-06T20:22:47.368Z,68.91
2019-05-06T20:28:05.758Z,68.26
2019-05-06T20:30:32.757Z,68.80
2019-05-06T20:33:00.491Z,68.81
2019-05-06T20:35:32.008Z,68.49
2019-05-06T20:37:58.422Z,68.54
2019-05-06T20:40:28.766Z,68.46
2019-05-06T20:42:58.417Z,68.14
2019-05-06T20:45:26.309Z,68.15
2019-05-06T20:47:54.881Z,68.21
2019-05-06T20:50:22.595Z,68.74
2019-05-06T20:52:52.495Z,68.44
2019-05-06T20:55:22.920Z,67.73
2019-05-06T20:57:52.864Z,68.31
2019-05-06T21:00:24.500Z,68.27
2019-05-06T21:02:53.291Z,68.74
2019-05-06T21:05:19.880Z,69.21
2019-05-06T21:07:48.351Z,69.38
2019-05-06T21:10:15.799Z,69.00
2019-05-06T21:12:42.504Z,69.55
2019-05-06T21:15:09.780Z,69.51
2019-05-06T21:17:36.429Z,69.84
2019-05-06T21:20:04.625Z,69.45
2019-05-06T21:22:32.040Z,70.22
2019-05-06T21:25:02.750Z,70.84
2019-05-06T21:27:32.270Z,70.46
2019-05-06T21:30:02.416Z,70.90
2019-05-06T21:32:28.927Z,70.75
2019-05-06T21:34:55.598Z,70.80
2019-05-06T21:37:22.885Z,70.76
2019-05-06T21:39:50.258Z,71.05
2019-05-06T21:42:16.924Z,70.99
2019-05-06T21:44:44.917Z,71.40
2019-05-06T21:47:14.179Z,72.02
2019-05-06T21:49:45.160Z,72.41
2019-05-06T21:52:13.129Z,72.50
2019-05-06T21:54:39.943Z,72.04
2019-05-06T21:57:08.405Z,72.14
2019-05-06T21:59:35.924Z,72.90
2019-05-06T22:02:06.417Z,72.35
2019-05-06T22:04:35.193Z,72.75
2019-05-06T22:07:03.061Z,72.15
2019-05-06T22:09:32.292Z,72.21
2019-05-06T22:12:02.814Z,71.37
2019-05-06T22:14:32.574Z,72.73
2019-05-06T22:17:03.898Z,72.04
2019-05-06T22:19:32.052Z,72.40
2019-05-06T22:22:03.828Z,72.68
2019-05-06T22:24:42.720Z,72.20
2019-05-06T22:27:12.325Z,72.56
2019-05-06T22:29:38.973Z,75.06
2019-05-06T22:32:07.398Z,75.89
2019-05-06T22:34:35.541Z,75.16
2019-05-06T22:37:03.342Z,74.34
2019-05-06T22:39:31.722Z,74.11
2019-05-06T22:41:59.157Z,73.71
2019-05-06T22:44:26.176Z,73.39
2019-05-06T22:46:53.892Z,73.14
2019-05-06T22:49:22.678Z,72.69
2019-05-06T22:51:52.152Z,73.75
2019-05-06T22:54:19.293Z,72.92
2019-05-06T22:56:45.905Z,71.88
2019-05-06T22:59:13.978Z,72.50
2019-05-06T23:02:02.306Z,71.87
2019-05-06T23:04:37.048Z,71.90
2019-05-06T23:07:07.062Z,73.33
2019-05-06T23:09:33.798Z,73.25
2019-05-06T23:12:04.734Z,72.92
2019-05-06T23:14:36.489Z,73.45
2019-05-06T23:17:02.997Z,73.57
2019-05-06T23:19:33.381Z,73.22
2019-05-06T23:22:04.026Z,72.93
2019-05-06T23:24:32.190Z,73.92
2019-05-06T23:26:59.082Z,73.88
2019-05-06T23:29:25.714Z,74.61
2019-05-06T23:31:52.887Z,74.32
2019-05-06T23:34:19.538Z,72.86
2019-05-06T23:37:02.443Z,73.14
2019-05-06T23:40:07.614Z,73.86
2019-05-06T23:43:12.700Z,73.47
2019-05-06T23:46:17.108Z,72.43
2019-05-06T23:49:22.286Z,73.44
2019-05-06T23:52:26.066Z,73.00
2019-05-06T23:55:30.303Z,72.97
2019-05-06T23:58:00.045Z,73.31
